Tiempo atmosférico en la estación meteorológica de Alosno, Huelva (276 m.)



Fecha
DESCASC
Temp. máxima en grados centígrados (hora)
DESCASC
Temp. mínima en grados centígrados (hora)
DESCASC
Temp. media en grados centígrados
DESCASC
Racha de viento máxima en m/sg (hora)
DESCASC
Velocidad máxima media en intervalos de 10 minutos(hora)
DESCASC
Precipitaciones diarias en mm
DESCASC
Precipitaciones de 00:00 a 06:00 en mm
DESCASC
Precipitaciones de 06:00 a 12:00 en mm
DESCASC
Precipitaciones de 12:00 a 18:00 en mm
DESCASC
Precipitaciones de 18:00 a 24:00 en mm
DESCASC

Gráficas

Temp. máximas Temp. mínimas Temp. medias Precipitaciones Rachas de viento máximas Velocidades máximas media en intervalos de 10 minutos

Datos horarios

Fecha y hora oficial Temperatura (ºC) Velocidad del viento (km/h) Dirección del viento Racha (km/h) Dirección de racha Precipitación (mm) Presión (hPa) Tendencia (hPa) Humedad (%)
2020-07-02 23:00:00 24.4 19 Noroeste 33 Noroeste 0 -- -- 41
2020-07-02 22:00:00 26.4 19 Noroeste 34 Noroeste 0 -- -- 38
2020-07-02 21:00:00 28.9 22 Noroeste 37 Noroeste 0 -- -- 33
2020-07-02 20:00:00 30.3 23 Noroeste 40 Oeste 0 -- -- 33
2020-07-02 19:00:00 31.3 25 Noroeste 37 Noroeste 0 -- -- 33
2020-07-02 18:00:00 31.4 23 Noroeste 43 Noroeste 0 -- -- 32
2020-07-02 17:00:00 31.8 21 Noroeste 37 Oeste 0 -- -- 30
2020-07-02 16:00:00 31.6 20 Noroeste 37 Noroeste 0 -- -- 32
2020-07-02 15:00:00 30.7 18 Noroeste 34 Noroeste 0 -- -- 34
2020-07-02 14:00:00 29 18 Noroeste 32 Noroeste 0 -- -- 38
2020-07-02 13:00:00 27.9 18 Norte 35 Noroeste 0 -- -- 40
2020-07-02 12:00:00 25.9 18 Noroeste 33 Noroeste 0 -- -- 47
2020-07-02 11:00:00 23.5 18 Noroeste 29 Norte 0 -- -- 56
2020-07-02 10:00:00 20.9 16 Noroeste 31 Noroeste 0 -- -- 66
2020-07-02 09:00:00 18.4 19 Noroeste 31 Noroeste 0 -- -- 78
2020-07-02 08:00:00 17.1 20 Noroeste 32 Noroeste 0 -- -- 85
2020-07-02 07:00:00 17.1 17 Noroeste 27 Noroeste 0 -- -- 85
2020-07-02 06:00:00 17.8 15 Noroeste 27 Noroeste 0 -- -- 83
2020-07-02 05:00:00 18.8 17 Noroeste 25 Noroeste 0 -- -- 79
2020-07-02 04:00:00 20.2 16 Noroeste 30 Noroeste 0 -- -- 74
2020-07-02 03:00:00 21.7 17 Noroeste 28 Noroeste 0 -- -- 68
2020-07-02 02:00:00 23.2 18 Noroeste 28 Noroeste 0 -- -- 62
2020-07-02 01:00:00 24.6 15 Noroeste 27 Noroeste 0 -- -- 56
2020-07-02 00:00:00 26.3 15 Noroeste 26 Noroeste 0 -- -- 49
2020-07-01 23:00:00 28 17 Noroeste 24 Noroeste 0 -- -- 44
2020-07-01 22:00:00 28.3 10 Sudoeste 19 Sudoeste 0 -- -- 51
2020-07-01 21:00:00 30.4 17 Sudoeste 24 Sur 0 -- -- 45
2020-07-01 20:00:00 32.2 17 Sudoeste 28 Sur 0 -- -- 40
2020-07-01 19:00:00 34.7 5 Oeste 24 Noroeste 0 -- -- 27
2020-07-01 18:00:00 34.3 12 Noroeste 24 Noroeste 0 -- -- 28
2020-07-01 17:00:00 33.5 9 Oeste 21 Oeste 0 -- -- 32
2020-07-01 16:00:00 32.5 12 Noroeste 26 Noroeste 0 -- -- 34
2020-07-01 15:00:00 31.3 10 Noroeste 23 Noroeste 0 -- -- 36
2020-07-01 14:00:00 29.5 8 Noroeste 19 Noroeste 0 -- -- 42
2020-07-01 13:00:00 27.7 11 Oeste 20 Noroeste 0 -- -- 48
2020-07-01 12:00:00 25.5 12 Noroeste 22 Noroeste 0 -- -- 56
2020-07-01 11:00:00 23.4 9 Noroeste 17 Noroeste 0 -- -- 64
2020-07-01 10:00:00 21.5 8 Noroeste 17 Noroeste 0 -- -- 72
2020-07-01 09:00:00 18.9 11 Noroeste 19 Noroeste 0 -- -- 82
2020-07-01 08:00:00 17.2 12 Noroeste 20 Noroeste 0 -- -- 90
2020-07-01 07:00:00 16.9 14 Noroeste 22 Noroeste 0 -- -- 91
2020-07-01 06:00:00 17.6 14 Noroeste 21 Noroeste 0 -- -- 87
2020-07-01 05:00:00 18.3 10 Noroeste 19 Noroeste 0 -- -- 82
2020-07-01 04:00:00 19.4 9 Oeste 19 Noroeste 0 -- -- 73
2020-07-01 03:00:00 20.7 13 Noroeste 20 Noroeste 0 -- -- 65
2020-07-01 02:00:00 22.3 12 Noroeste 19 Oeste 0 -- -- 55
2020-07-01 01:00:00 24.1 11 Oeste 18 Oeste 0 -- -- 48
2020-07-01 00:00:00 25.5 8 Oeste 13 Oeste 0 -- -- 47
2020-06-30 23:00:00 25.9 9 Sudoeste 15 Sur 0 -- -- 50
2020-06-30 22:00:00 27.8 12 Sur 24 Sur 0 -- -- 41
2020-06-30 21:00:00 29.9 17 Sur 26 Sur 0 -- -- 37
2020-06-30 20:00:00 30.9 19 Sur 32 Sur 0 -- -- 35
2020-06-30 19:00:00 31.6 24 Sur 36 Sudoeste 0 -- -- 35
2020-06-30 18:00:00 32.6 23 Sudoeste 37 Sur 0 -- -- 31
2020-06-30 17:00:00 32.3 26 Sur 40 Sur 0 -- -- 32
2020-06-30 16:00:00 31.8 24 Sur 40 Sur 0 -- -- 37
2020-06-30 15:00:00 32.2 19 Sudoeste 37 Sudoeste 0 -- -- 33
2020-06-30 14:00:00 31.3 24 Sur 36 Sur 0 -- -- 34
2020-06-30 13:00:00 30.8 20 Sur 32 Sur 0 -- -- 33
2020-06-30 12:00:00 29.7 18 Sur 30 Sur 0 -- -- 38
2020-06-30 11:00:00 28.7 13 Sudoeste 24 Sur 0 -- -- 45
2020-06-30 10:00:00 26.1 4 Oeste 10 Sudoeste 0 -- -- 56
2020-06-30 09:00:00 22.8 4 Sudoeste 13 Oeste 0 -- -- 67
2020-06-30 08:00:00 20.4 6 Oeste 13 Oeste 0 -- -- 74
2020-06-30 07:00:00 20.1 7 Noroeste 13 Noroeste 0 -- -- 75
2020-06-30 06:00:00 20.9 6 Oeste 18 Noroeste 0 -- -- 73
2020-06-30 05:00:00 22.3 12 Noroeste 20 Noroeste 0 -- -- 69
2020-06-30 04:00:00 23.6 4 Sudoeste 16 Noroeste 0 -- -- 64
2020-06-30 03:00:00 24.3 10 Noroeste 20 Noroeste 0 -- -- 62
2020-06-30 02:00:00 25.4 14 Noroeste 22 Noroeste 0 -- -- 59
2020-06-30 01:00:00 26.7 14 Noroeste 26 Noroeste 0 -- -- 55
2020-06-30 00:00:00 28.1 15 Oeste 25 Oeste 0 -- -- 50
2020-06-29 23:00:00 28 13 Sur 17 Sur 0 -- -- 50
2020-06-29 22:00:00 29 13 Sudoeste 30 Sur 0 -- -- 48
2020-06-29 21:00:00 31.5 20 Sur 33 Sur 0 -- -- 42
2020-06-29 20:00:00 32.6 25 Sur 35 Sur 0 -- -- 40
2020-06-29 19:00:00 33.8 24 Sur 37 Sur 0 -- -- 38
2020-06-29 18:00:00 35.8 19 Sur 31 Sur 0 -- -- 33
2020-06-29 17:00:00 36.3 16 Sur 36 Sur 0 -- -- 33
2020-06-29 16:00:00 36.3 9 Sudeste 19 Sudeste 0 -- -- 30
2020-06-29 15:00:00 35.4 10 Sur 24 Noroeste 0 -- -- 33
2020-06-29 14:00:00 34.2 6 Sudeste 15 Noroeste 0 -- -- 36
2020-06-29 13:00:00 31.8 6 Noroeste 13 Oeste 0 -- -- 43
2020-06-29 12:00:00 29.3 7 Noroeste 15 Oeste 0 -- -- 50
2020-06-29 11:00:00 26 9 Noroeste 19 Oeste 0 -- -- 61
2020-06-29 10:00:00 22.4 14 Noroeste 22 Noroeste 0 -- -- 72
2020-06-29 09:00:00 19.9 15 Noroeste 29 Noroeste 0 -- -- 80
2020-06-29 08:00:00 18.5 18 Noroeste 28 Noroeste 0 -- -- 86
2020-06-29 07:00:00 18.5 19 Noroeste 27 Noroeste 0 -- -- 85
2020-06-29 06:00:00 19.5 18 Noroeste 27 Noroeste 0 -- -- 80
2020-06-29 05:00:00 20.9 17 Noroeste 28 Noroeste 0 -- -- 74
2020-06-29 04:00:00 22.1 19 Noroeste 30 Noroeste 0 -- -- 70
2020-06-29 03:00:00 23.3 18 Noroeste 28 Noroeste 0 -- -- 65
2020-06-29 02:00:00 24.8 16 Noroeste 30 Noroeste 0 -- -- 58
2020-06-29 01:00:00 26.2 16 Noroeste 27 Norte 0 -- -- 53
2020-06-29 00:00:00 28.1 16 Noroeste 32 Noroeste 0 -- -- 46
2020-06-28 23:00:00 29.9 11 Noroeste 18 Noroeste 0 -- -- 39
2020-06-28 22:00:00 31.4 9 Noroeste 19 Noroeste 0 -- -- 34
2020-06-28 21:00:00 33.4 13 Noroeste 28 Noroeste 0 -- -- 31
2020-06-28 20:00:00 34.4 14 Noroeste 29 Noroeste 0 -- -- 30
2020-06-28 19:00:00 35.2 14 Noroeste 24 Noroeste 0 -- -- 30
2020-06-28 18:00:00 35.2 5 Nordeste 20 Noroeste 0 -- -- 29
2020-06-28 17:00:00 34.6 10 Noroeste 19 Noroeste 0 -- -- 29
2020-06-28 16:00:00 33.6 6 Nordeste 17 Norte 0 -- -- 31
2020-06-28 15:00:00 33.5 8 Oeste 17 Sudoeste 0 -- -- 33
2020-06-28 14:00:00 31.2 5 Nordeste 16 Noroeste 0 -- -- 38
2020-06-28 13:00:00 29.3 9 Norte 18 Norte 0 -- -- 45
2020-06-28 12:00:00 26.7 11 Noroeste 23 Noroeste 0 -- -- 56
2020-06-28 11:00:00 24.1 15 Noroeste 26 Noroeste 0 -- -- 67
2020-06-28 10:00:00 21 18 Noroeste 27 Noroeste 0 -- -- 78
2020-06-28 09:00:00 19.3 16 Noroeste 30 Noroeste 0 -- -- 86
2020-06-28 08:00:00 17.8 18 Noroeste 27 Noroeste 0 -- -- 92
2020-06-28 07:00:00 17.7 17 Noroeste 28 Noroeste 0 -- -- 91
2020-06-28 06:00:00 18.7 19 Noroeste 28 Noroeste 0 -- -- 86
2020-06-28 05:00:00 19.7 18 Noroeste 26 Noroeste 0 -- -- 81
2020-06-28 04:00:00 20.6 13 Noroeste 26 Noroeste 0 -- -- 76
2020-06-28 03:00:00 21.6 17 Noroeste 28 Noroeste 0 -- -- 71
2020-06-28 02:00:00 22.6 17 Noroeste 26 Noroeste 0 -- -- 64
2020-06-28 01:00:00 23.7 17 Noroeste 27 Noroeste 0 -- -- 59
2020-06-28 00:00:00 25 15 Noroeste 27 Noroeste 0 -- -- 54
2020-06-27 23:00:00 26.4 19 Noroeste 30 Noroeste 0 -- -- 51
2020-06-27 22:00:00 27.9 18 Noroeste 30 Norte 0 -- -- 46
2020-06-27 21:00:00 30.1 15 Noroeste 31 Noroeste 0 -- -- 39
2020-06-27 20:00:00 31 16 Noroeste 25 Noroeste 0 -- -- 36
2020-06-27 19:00:00 31 14 Noroeste 27 Noroeste 0 -- -- 37
2020-06-27 18:00:00 30.9 15 Noroeste 30 Oeste 0 -- -- 39
2020-06-27 17:00:00 30 14 Noroeste 31 Noroeste 0 -- -- 39
2020-06-27 16:00:00 29.2 16 Noroeste 29 Noroeste 0 -- -- 41
2020-06-27 15:00:00 28 18 Noroeste 31 Noroeste 0 -- -- 45
2020-06-27 14:00:00 26.7 16 Noroeste 27 Noroeste 0 -- -- 50
2020-06-27 13:00:00 24.9 15 Noroeste 30 Norte 0 -- -- 56
2020-06-27 12:00:00 23 17 Noroeste 29 Noroeste 0 -- -- 62
2020-06-27 11:00:00 21.1 15 Norte 32 Norte 0 -- -- 70
2020-06-27 10:00:00 19.3 21 Noroeste 33 Noroeste 0 -- -- 77
2020-06-27 09:00:00 17.6 18 Noroeste 36 Noroeste 0 -- -- 84
2020-06-27 08:00:00 15.8 19 Noroeste 29 Noroeste 0 -- -- 91
2020-06-27 07:00:00 15.5 16 Noroeste 27 Noroeste 0 -- -- 91
2020-06-27 06:00:00 16 17 Noroeste 25 Noroeste 0 -- -- 88
2020-06-27 05:00:00 16.5 17 Noroeste 28 Noroeste 0 -- -- 85
2020-06-27 04:00:00 16.8 14 Noroeste 21 Noroeste 0 -- -- 83
2020-06-27 03:00:00 17.5 11 Noroeste 22 Noroeste 0 -- -- 78
2020-06-27 02:00:00 18.4 13 Noroeste 27 Noroeste 0 -- -- 72
2020-06-27 01:00:00 19.5 19 Noroeste 33 Noroeste 0 -- -- 65
2020-06-27 00:00:00 21.1 20 Noroeste 32 Norte 0 -- -- 57
2020-06-26 23:00:00 22.8 18 Noroeste 35 Noroeste 0 -- -- 52
2020-06-26 22:00:00 25.4 15 Noroeste 26 Noroeste 0 -- -- 42
2020-06-26 21:00:00 27.6 12 Noroeste 28 Noroeste 0 -- -- 33
2020-06-26 20:00:00 28.4 16 Noroeste 30 Noroeste 0 -- -- 30
2020-06-26 19:00:00 29.3 14 Oeste 32 Noroeste 0 -- -- 29
2020-06-26 18:00:00 29.3 13 Noroeste 33 Oeste 0 -- -- 34
2020-06-26 17:00:00 28.6 10 Noroeste 33 Noroeste 0 -- -- 35
2020-06-26 16:00:00 28.6 17 Oeste 29 Oeste 0 -- -- 33
2020-06-26 15:00:00 27.3 12 Noroeste 38 Sudoeste 0 -- -- 39
2020-06-26 14:00:00 26.1 8 Noroeste 24 Noroeste 0 -- -- 41
2020-06-26 13:00:00 23.9 11 Noroeste 22 Norte 0 -- -- 47
2020-06-26 12:00:00 21.6 12 Noroeste 24 Noroeste 0 -- -- 57
2020-06-26 11:00:00 19.1 13 Noroeste 29 Noroeste 0 -- -- 65
2020-06-26 10:00:00 16.8 17 Noroeste 30 Noroeste 0 -- -- 77
2020-06-26 09:00:00 15.1 20 Noroeste 32 Noroeste 0 -- -- 85
2020-06-26 08:00:00 13.7 16 Noroeste 27 Noroeste 0 -- -- 94
2020-06-26 07:00:00 13.4 17 Noroeste 28 Noroeste 0 -- -- 94
2020-06-26 06:00:00 14 20 Noroeste 27 Noroeste 0 -- -- 92
2020-06-26 05:00:00 14.9 15 Noroeste 28 Noroeste 0 -- -- 88
2020-06-26 04:00:00 16.1 13 Noroeste 25 Noroeste 0 -- -- 83
2020-06-26 03:00:00 18.1 19 Noroeste 30 Noroeste 0 -- -- 75
2020-06-26 02:00:00 19.3 14 Noroeste 22 Noroeste 0 -- -- 71
2020-06-26 01:00:00 20 11 Noroeste 19 Noroeste 0 -- -- 75
2020-06-26 00:00:00 20.5 6 Sur 16 Sur 0 -- -- 80
2020-06-25 23:00:00 21.3 13 Sur 21 Sudoeste 0 -- -- 77
2020-06-25 22:00:00 22.6 18 Sur 26 Sur 0 -- -- 73
2020-06-25 21:00:00 25.1 20 Sur 28 Sur 0 -- -- 64
2020-06-25 20:00:00 26.3 20 Sur 29 Sur 0 -- -- 61
2020-06-25 19:00:00 27.1 20 Sur 31 Sur 0 -- -- 58
2020-06-25 18:00:00 29.5 21 Sur 35 Sudoeste 0 -- -- 51
2020-06-25 17:00:00 29.7 6 Sudeste 17 Sudoeste 0 -- -- 48
2020-06-25 16:00:00 27.7 7 Sudoeste 20 Sur 0 -- -- 53
2020-06-25 15:00:00 26 13 Sur 27 Sudoeste 0 -- -- 59
2020-06-25 14:00:00 25.7 17 Sur 29 Sur 0 -- -- 60
2020-06-25 13:00:00 25.3 19 Sur 36 Sur 0 -- -- 59
2020-06-25 12:00:00 23.9 19 Sur 34 Sudeste 0 -- -- 63
2020-06-25 11:00:00 23.2 21 Sur 39 Sur 0 -- -- 68
2020-06-25 10:00:00 21.9 17 Sur 37 Sur 0 -- -- 73
2020-06-25 09:00:00 20.7 15 Sur 25 Sur 0 -- -- 78
2020-06-25 08:00:00 19.7 12 Sur 21 Sudeste 0 -- -- 80
2020-06-25 07:00:00 19.7 10 Sur 16 Sur 0 -- -- 75
2020-06-25 06:00:00 20.7 7 Sudeste 12 Sudeste 0 -- -- 67
2020-06-25 05:00:00 20.6 3 Sur 12 Sudeste 0 -- -- 66
2020-06-25 04:00:00 21.6 7 Sur 14 Sudoeste 0 -- -- 60
2020-06-25 03:00:00 22.2 9 Sur 15 Sur 0 -- -- 57
2020-06-25 02:00:00 21.9 3 Sur 12 Oeste 0 -- -- 62
2020-06-25 01:00:00 21.9 7 Oeste 14 Oeste 0 -- -- 66
2020-06-25 00:00:00 22.9 10 Sudoeste 17 Sudoeste 0 -- -- 62
2020-06-24 23:00:00 24.5 13 Sur 17 Sur 0 -- -- 53
2020-06-24 22:00:00 25.5 13 Sur 21 Sur 0 -- -- 51
2020-06-24 21:00:00 27.7 17 Sur 27 Sur 0 -- -- 45
2020-06-24 20:00:00 29.1 20 Sudoeste 28 Sur 0 -- -- 42
2020-06-24 19:00:00 30.2 17 Sudoeste 31 Sur 0 -- -- 41
2020-06-24 18:00:00 30.4 22 Sur 33 Sur 0 -- -- 40
2020-06-24 17:00:00 30.7 18 Sur 31 Sur 0 -- -- 42
2020-06-24 16:00:00 31.1 18 Sur 32 Sur 0 -- -- 42
2020-06-24 15:00:00 30.2 13 Sur 29 Sudeste 0 -- -- 42
2020-06-24 14:00:00 29.3 14 Sur 30 Sudoeste 0 -- -- 44
2020-06-24 13:00:00 28.6 17 Sur 27 Sur 0 -- -- 44
2020-06-24 12:00:00 27.6 18 Sur 33 Sudoeste 0 -- -- 46
2020-06-24 11:00:00 26.6 16 Sur 26 Sur 0 -- -- 47
2020-06-24 10:00:00 24.5 12 Sur 17 Sur 0 -- -- 54
2020-06-24 09:00:00 22.9 8 Sudeste 21 Sur 0 -- -- 59
2020-06-24 08:00:00 22.1 16 Sur 30 Sur 0 -- -- 60
2020-06-24 07:00:00 22.4 22 Sur 32 Sur 0 -- -- 57
2020-06-24 06:00:00 22.1 8 Sur 14 Sudeste 0 -- -- 56
2020-06-24 05:00:00 22.1 2 Sudoeste 6 Sur 0 -- -- 56
2020-06-24 04:00:00 22.7 5 Sur 9 Sur 0 -- -- 55
2020-06-24 03:00:00 23.4 2 Sudoeste 17 Sur 0 -- -- 52
2020-06-24 02:00:00 24.2 17 Sur 27 Sur 0 -- -- 49
2020-06-24 01:00:00 24.7 12 Sudoeste 21 Sudoeste 0 -- -- 48
2020-06-24 00:00:00 25.1 14 Sudoeste 23 Sudoeste 0 -- -- 48
2020-06-23 23:00:00 25.1 15 Sudoeste 27 Sudoeste 0 -- -- 49
2020-06-23 22:00:00 26.3 19 Sudoeste 37 Sur 0 -- -- 47
2020-06-23 21:00:00 28.2 22 Sudoeste 40 Sudoeste 0 -- -- 43
2020-06-23 20:00:00 29.7 26 Sudoeste 36 Sudoeste 0 -- -- 38
2020-06-23 19:00:00 31.2 27 Sur 42 Sur 0 -- -- 36
2020-06-23 18:00:00 31 27 Sudoeste 44 Sur 0 -- -- 36
2020-06-23 17:00:00 29.2 31 Sudoeste 48 Sur 0 -- -- 36
2020-06-23 16:00:00 37.4 9 Nordeste 24 Sur 0 -- -- 21
2020-06-23 15:00:00 36.7 9 Nordeste 26 Este 0 -- -- 22
2020-06-23 14:00:00 35.8 6 Sudeste 17 Sudeste 0 -- -- 23
2020-06-23 13:00:00 34.4 7 Sur 12 Sudoeste 0 -- -- 27
2020-06-23 12:00:00 32.3 3 Este 13 Sur 0 -- -- 32
2020-06-23 11:00:00 30.7 5 Sudeste 9 Este 0 -- -- 34
2020-06-23 10:00:00 28.5 4 Este 7 Este 0 -- -- 37
2020-06-23 09:00:00 25.4 2 Norte 5 Norte 0 -- -- 41
2020-06-23 08:00:00 22.8 0 Calma 6 Nordeste 0 -- -- 48
2020-06-23 07:00:00 22.1 4 Nordeste 6 Nordeste 0 -- -- 49
2020-06-23 06:00:00 23.3 2 Norte 6 Este 0 -- -- 51
2020-06-23 05:00:00 23.9 4 Este 10 Oeste 0 -- -- 54
2020-06-23 04:00:00 24.5 7 Sudoeste 10 Sudoeste 0 -- -- 50
2020-06-23 03:00:00 25 5 Oeste 17 Noroeste 0 -- -- 49
2020-06-23 02:00:00 26.7 10 Oeste 17 Oeste 0 -- -- 43
2020-06-23 01:00:00 27.2 8 Sudoeste 13 Sudoeste 0 -- -- 36
2020-06-23 00:00:00 28 9 Oeste 15 Sudoeste 0 -- -- 32
2020-06-22 23:00:00 28.8 11 Oeste 22 Oeste 0 -- -- 30
2020-06-22 22:00:00 30.4 16 Sudoeste 26 Sudoeste 0 -- -- 29
2020-06-22 21:00:00 33.7 16 Sudoeste 27 Sudoeste 0 -- -- 25
2020-06-22 20:00:00 35.8 18 Sudoeste 27 Sur 0 -- -- 22
2020-06-22 19:00:00 36.9 17 Sur 27 Sur 0 -- -- 20
2020-06-22 18:00:00 37.6 17 Sudoeste 40 Sur 0 -- -- 21
2020-06-22 17:00:00 38.5 6 Sur 24 Sudeste 0 -- -- 18
2020-06-22 16:00:00 37.7 13 Sur 34 Sudeste 0 -- -- 17
2020-06-22 15:00:00 37.3 13 Sudeste 33 Sur 0 -- -- 18
2020-06-22 14:00:00 36.7 14 Sudeste 31 Este 0 -- -- 19
2020-06-22 13:00:00 35.4 6 Este 17 Este 0 -- -- 23
2020-06-22 12:00:00 33.2 9 Este 15 Este 0 -- -- 25
2020-06-22 11:00:00 27.7 5 Noroeste 10 Noroeste 0 -- -- 45
2020-06-22 10:00:00 22.6 7 Noroeste 13 Noroeste 0 -- -- 64
2020-06-22 09:00:00 19.2 9 Noroeste 16 Oeste 0 -- -- 78
2020-06-22 08:00:00 17.3 10 Oeste 17 Oeste 0 -- -- 85
2020-06-22 07:00:00 16.8 9 Oeste 20 Noroeste 0 -- -- 86
2020-06-22 06:00:00 17.6 12 Noroeste 23 Noroeste 0 -- -- 82
2020-06-22 05:00:00 18.7 14 Noroeste 23 Noroeste 0 -- -- 78
2020-06-22 04:00:00 20 16 Noroeste 23 Noroeste 0 -- -- 72
2020-06-22 03:00:00 21.3 12 Noroeste 21 Noroeste 0 -- -- 66
2020-06-22 02:00:00 23.1 13 Noroeste 22 Noroeste 0 -- -- 58
2020-06-22 01:00:00 24.6 14 Noroeste 26 Noroeste 0 -- -- 49
2020-06-22 00:00:00 26 14 Noroeste 23 Noroeste 0 -- -- 39
2020-06-21 23:00:00 27.7 13 Noroeste 21 Noroeste 0 -- -- 35
2020-06-21 22:00:00 29.7 14 Noroeste 27 Noroeste 0 -- -- 30
2020-06-21 21:00:00 32.4 20 Noroeste 33 Noroeste 0 -- -- 23
2020-06-21 20:00:00 33.8 18 Norte 33 Norte 0 -- -- 20
2020-06-21 19:00:00 34.2 18 Noroeste 30 Noroeste 0 -- -- 21
2020-06-21 18:00:00 34 15 Noroeste 33 Norte 0 -- -- 23
2020-06-21 17:00:00 33.6 17 Noroeste 32 Norte 0 -- -- 22
2020-06-21 16:00:00 32.2 17 Norte 29 Noroeste 0 -- -- 25
2020-06-21 15:00:00 30.7 15 Norte 30 Noroeste 0 -- -- 27
2020-06-21 14:00:00 29 17 Noroeste 33 Noroeste 0 -- -- 32
2020-06-21 13:00:00 26.7 17 Noroeste 28 Noroeste 0 -- -- 38
2020-06-21 12:00:00 23.8 18 Noroeste 33 Noroeste 0 -- -- 47
2020-06-21 11:00:00 21.3 21 Noroeste 32 Noroeste 0 -- -- 57
2020-06-21 10:00:00 18.5 20 Noroeste 35 Noroeste 0 -- -- 67
2020-06-21 09:00:00 15.8 25 Noroeste 35 Noroeste 0 -- -- 76
2020-06-21 08:00:00 14.4 22 Noroeste 36 Noroeste 0 -- -- 81
2020-06-21 07:00:00 14.3 21 Noroeste 33 Noroeste 0 -- -- 83
2020-06-21 06:00:00 15.4 22 Noroeste 34 Noroeste 0 -- -- 79
2020-06-21 05:00:00 16.8 17 Noroeste 27 Noroeste 0 -- -- 74
2020-06-21 04:00:00 18.3 15 Noroeste 27 Noroeste 0 -- -- 68
2020-06-21 03:00:00 19.5 14 Noroeste 28 Noroeste 0 -- -- 64
2020-06-21 02:00:00 21.1 19 Noroeste 31 Noroeste 0 -- -- 57
2020-06-21 01:00:00 22.8 19 Noroeste 33 Noroeste 0 -- -- 52
2020-06-21 00:00:00 24.4 18 Noroeste 32 Noroeste 0 -- -- 49
2020-06-20 23:00:00 26.1 18 Noroeste 29 Noroeste 0 -- -- 43
2020-06-20 22:00:00 28.4 15 Noroeste 29 Noroeste 0 -- -- 34
2020-06-20 21:00:00 31.1 18 Noroeste 26 Noroeste 0 -- -- 29
2020-06-20 20:00:00 32.4 13 Noroeste 27 Noroeste 0 -- -- 27
2020-06-20 19:00:00 32.5 13 Norte 27 Noroeste 0 -- -- 22
2020-06-20 18:00:00 32.6 8 Norte 23 Oeste 0 -- -- 22
2020-06-20 17:00:00 32.5 9 Noroeste 25 Noroeste 0 -- -- 23
2020-06-20 16:00:00 31.8 8 Noroeste 38 Oeste 0 -- -- 22
2020-06-20 15:00:00 30.8 10 Noroeste 24 Oeste 0 -- -- 25
2020-06-20 14:00:00 29.7 9 Noroeste 23 Noroeste 0 -- -- 28
2020-06-20 13:00:00 28 10 Noroeste 20 Noroeste 0 -- -- 31
2020-06-20 12:00:00 25.6 10 Noroeste 18 Noroeste 0 -- -- 37
2020-06-20 11:00:00 22.4 13 Noroeste 18 Noroeste 0 -- -- 47
2020-06-20 10:00:00 19 11 Noroeste 21 Noroeste 0 -- -- 57
2020-06-20 09:00:00 16.1 11 Oeste 22 Oeste 0 -- -- 66
2020-06-20 08:00:00 14.1 11 Noroeste 27 Noroeste 0 -- -- 73
2020-06-20 07:00:00 13.8 17 Noroeste 26 Noroeste 0 -- -- 75
2020-06-20 06:00:00 14.4 14 Noroeste 22 Noroeste 0 -- -- 73
2020-06-20 05:00:00 15.2 16 Noroeste 23 Noroeste 0 -- -- 71
2020-06-20 04:00:00 16.3 14 Noroeste 24 Noroeste 0 -- -- 67
2020-06-20 03:00:00 17.4 15 Noroeste 22 Noroeste 0 -- -- 64
2020-06-20 02:00:00 18.4 14 Noroeste 24 Noroeste 0 -- -- 61
2020-06-20 01:00:00 19.5 16 Noroeste 27 Noroeste 0 -- -- 58
2020-06-20 00:00:00 20.6 14 Noroeste 23 Noroeste 0 -- -- 54
2020-06-19 23:00:00 21.8 11 Oeste 17 Sudoeste 0 -- -- 49
2020-06-19 22:00:00 23.1 13 Sudoeste 22 Sudoeste 0 -- -- 46
2020-06-19 21:00:00 25.8 15 Sudoeste 24 Sur 0 -- -- 41
2020-06-19 20:00:00 29.2 10 Noroeste 19 Oeste 0 -- -- 27
2020-06-19 19:00:00 29.5 6 Oeste 22 Noroeste 0 -- -- 26
2020-06-19 18:00:00 28.7 9 Noroeste 23 Noroeste 0 -- -- 28
2020-06-19 17:00:00 28.4 6 Sur 23 Oeste 0 -- -- 27
2020-06-19 16:00:00 27.1 10 Noroeste 23 Norte 0 -- -- 30
2020-06-19 15:00:00 26.5 14 Noroeste 23 Oeste 0 -- -- 33
2020-06-19 14:00:00 24.7 10 Noroeste 23 Oeste 0 -- -- 38
2020-06-19 13:00:00 23.1 10 Noroeste 23 Oeste 0 -- -- 43
2020-06-19 12:00:00 21 12 Noroeste 25 Noroeste 0 -- -- 52
2020-06-19 11:00:00 18.2 19 Noroeste 33 Noroeste 0 -- -- 62
2020-06-19 10:00:00 16.1 17 Noroeste 29 Noroeste 0 -- -- 71
2020-06-19 09:00:00 14.4 15 Noroeste 27 Noroeste 0 -- -- 79
2020-06-19 08:00:00 12.8 18 Noroeste 30 Noroeste 0 -- -- 85
2020-06-19 07:00:00 12.5 20 Noroeste 30 Noroeste 0 -- -- 84
2020-06-19 06:00:00 13.1 18 Noroeste 30 Noroeste 0 -- -- 81
2020-06-19 05:00:00 14 18 Noroeste 33 Noroeste 0 -- -- 76
2020-06-19 04:00:00 15.1 21 Noroeste 31 Noroeste 0 -- -- 72
2020-06-19 03:00:00 16.1 20 Noroeste 31 Noroeste 0 -- -- 67
2020-06-19 02:00:00 17.4 19 Noroeste 34 Noroeste 0 -- -- 61
2020-06-19 01:00:00 18.9 22 Noroeste 36 Noroeste 0 -- -- 56
2020-06-19 00:00:00 20.5 19 Noroeste 35 Noroeste 0 -- -- 53
2020-06-18 23:00:00 21.2 19 Noroeste 31 Oeste 0 -- -- 53
2020-06-18 22:00:00 24.3 20 Noroeste 31 Noroeste 0 -- -- 40
2020-06-18 21:00:00 26.6 19 Noroeste 31 Noroeste 0 -- -- 35
2020-06-18 20:00:00 27.8 15 Noroeste 27 Noroeste 0 -- -- 32
2020-06-18 19:00:00 28 17 Noroeste 31 Noroeste 0 -- -- 31
2020-06-18 18:00:00 28.2 17 Noroeste 29 Noroeste 0 -- -- 30
2020-06-18 17:00:00 27.8 13 Noroeste 27 Oeste 0 -- -- 32
2020-06-18 16:00:00 27.1 11 Noroeste 27 Noroeste 0 -- -- 33
2020-06-18 15:00:00 25.6 14 Norte 30 Noroeste 0 -- -- 37
2020-06-18 14:00:00 24.1 17 Noroeste 32 Noroeste 0 -- -- 39
2020-06-18 13:00:00 22.6 17 Noroeste 29 Noroeste 0 -- -- 47
2020-06-18 12:00:00 20.1 17 Noroeste 30 Noroeste 0 -- -- 57
2020-06-18 11:00:00 17.8 18 Noroeste 30 Noroeste 0 -- -- 63
2020-06-18 10:00:00 15.8 19 Noroeste 32 Norte 0 -- -- 71
2020-06-18 09:00:00 13.8 20 Noroeste 30 Noroeste 0 -- -- 78
2020-06-18 08:00:00 12.3 15 Noroeste 24 Noroeste 0 -- -- 83
2020-06-18 07:00:00 12 14 Noroeste 23 Noroeste 0 -- -- 85
2020-06-18 06:00:00 12.6 13 Noroeste 21 Noroeste 0 -- -- 83
2020-06-18 05:00:00 13.8 15 Noroeste 30 Noroeste 0 -- -- 79
2020-06-18 04:00:00 14.4 17 Noroeste 30 Noroeste 0 -- -- 78
2020-06-18 03:00:00 14.9 16 Noroeste 25 Noroeste 0 -- -- 77
2020-06-18 02:00:00 15.8 15 Noroeste 27 Noroeste 0 -- -- 72
2020-06-18 01:00:00 17.4 16 Noroeste 28 Noroeste 0 -- -- 65
2020-06-18 00:00:00 19.1 13 Noroeste 24 Noroeste 0 -- -- 61
2020-06-17 23:00:00 20.6 15 Oeste 28 Oeste 0 -- -- 55
2020-06-17 22:00:00 22.7 12 Noroeste 26 Noroeste 0 -- -- 46
2020-06-17 21:00:00 24.9 17 Noroeste 30 Norte 0 -- -- 39
2020-06-17 20:00:00 25.9 17 Noroeste 33 Noroeste 0 -- -- 36
2020-06-17 19:00:00 26.2 19 Noroeste 35 Noroeste 0 -- -- 36
2020-06-17 18:00:00 26.4 18 Noroeste 36 Oeste 0 -- -- 36
2020-06-17 17:00:00 26.1 17 Noroeste 36 Noroeste 0 -- -- 39
2020-06-17 16:00:00 25.1 19 Noroeste 36 Noroeste 0 -- -- 43
2020-06-17 15:00:00 24.4 17 Noroeste 34 Norte 0 -- -- 45
2020-06-17 14:00:00 23.2 18 Noroeste 35 Noroeste 0 -- -- 48
2020-06-17 13:00:00 22 21 Noroeste 37 Noroeste 0 -- -- 52
2020-06-17 12:00:00 20.8 17 Norte 35 Noroeste 0 -- -- 54
2020-06-17 11:00:00 19.3 23 Norte 36 Noroeste 0 -- -- 56
2020-06-17 10:00:00 17.8 16 Norte 33 Norte 0 -- -- 62
2020-06-17 09:00:00 16 15 Norte 24 Noroeste 0 -- -- 71
2020-06-17 08:00:00 14.4 14 Noroeste 21 Noroeste 0 -- -- 77
2020-06-17 07:00:00 13.8 13 Noroeste 20 Noroeste 0 -- -- 81
2020-06-17 06:00:00 14.3 10 Noroeste 15 Noroeste 0 -- -- 79
2020-06-17 05:00:00 15.5 11 Noroeste 15 Noroeste 0 -- -- 77
2020-06-17 04:00:00 16.4 12 Noroeste 23 Noroeste 0 -- -- 75
2020-06-17 03:00:00 16.9 13 Noroeste 18 Noroeste 0 -- -- 78
2020-06-17 02:00:00 17.4 13 Noroeste 20 Noroeste 0 -- -- 78
2020-06-17 01:00:00 18.2 13 Noroeste 23 Noroeste 0 -- -- 74
2020-06-17 00:00:00 19.4 13 Noroeste 28 Noroeste 0 -- -- 68
2020-06-16 23:00:00 20.9 16 Noroeste 30 Noroeste 0 -- -- 63
2020-06-16 22:00:00 22.4 19 Noroeste 35 Noroeste 0 -- -- 57
2020-06-16 21:00:00 24.8 23 Noroeste 39 Oeste 0 -- -- 49
2020-06-16 20:00:00 25.8 22 Noroeste 41 Oeste 0 -- -- 47
2020-06-16 19:00:00 26.4 30 Noroeste 43 Oeste 0 -- -- 46
2020-06-16 18:00:00 26.7 21 Noroeste 40 Noroeste 0 -- -- 47
2020-06-16 17:00:00 27.4 19 Noroeste 37 Noroeste 0 -- -- 45
2020-06-16 16:00:00 25.5 20 Noroeste 37 Noroeste 0 -- -- 50
2020-06-16 15:00:00 24.5 15 Noroeste 36 Oeste 0 -- -- 56
2020-06-16 14:00:00 23.5 25 Noroeste 42 Noroeste 0 -- -- 58
2020-06-16 13:00:00 23 24 Noroeste 37 Noroeste 0 -- -- 56
2020-06-16 12:00:00 22.4 19 Noroeste 40 Noroeste 0 -- -- 56
2020-06-16 11:00:00 21.2 22 Noroeste 37 Norte 0 -- -- 56
2020-06-16 10:00:00 18.9 17 Noroeste 29 Noroeste 0 -- -- 54
2020-06-16 09:00:00 15.6 14 Noroeste 25 Noroeste 0 -- -- 73
2020-06-16 08:00:00 14.3 13 Noroeste 21 Noroeste 0 -- -- 81
2020-06-16 07:00:00 13.8 12 Noroeste 19 Norte 0 -- -- 84
2020-06-16 06:00:00 14.3 10 Noroeste 21 Noroeste 0 -- -- 81
2020-06-16 05:00:00 15.3 13 Noroeste 22 Noroeste 0 -- -- 77
2020-06-16 04:00:00 16.4 14 Noroeste 25 Noroeste 0 -- -- 72
2020-06-16 03:00:00 17.1 18 Noroeste 31 Noroeste 0 -- -- 69
2020-06-16 02:00:00 17.1 21 Noroeste 31 Noroeste 0 -- -- 68
2020-06-16 01:00:00 17.5 20 Noroeste 31 Noroeste 0 -- -- 66
2020-06-16 00:00:00 18.5 21 Noroeste 31 Noroeste 0 -- -- 61
2020-06-15 23:00:00 20.2 21 Noroeste 33 Noroeste 0 -- -- 55
2020-06-15 22:00:00 22.5 19 Noroeste 31 Noroeste 0 -- -- 50
2020-06-15 21:00:00 25.1 18 Noroeste 32 Noroeste 0 -- -- 40
2020-06-15 20:00:00 26.4 17 Noroeste 28 Noroeste 0 -- -- 36
2020-06-15 19:00:00 26.7 15 Noroeste 32 Noroeste 0 -- -- 35
2020-06-15 18:00:00 27 12 Noroeste 36 Noroeste 0 -- -- 34
2020-06-15 17:00:00 26.3 12 Noroeste 31 Noroeste 0 -- -- 36
2020-06-15 16:00:00 26 14 Oeste 36 Noroeste 0 -- -- 35
2020-06-15 15:00:00 25 16 Noroeste 30 Oeste 0 -- -- 37
2020-06-15 14:00:00 24 17 Oeste 34 Oeste 0 -- -- 38
2020-06-15 13:00:00 22.8 11 Oeste 26 Noroeste 0 -- -- 42
2020-06-15 12:00:00 21.3 10 Noroeste 24 Noroeste 0 -- -- 47
2020-06-15 11:00:00 19.7 14 Noroeste 22 Noroeste 0 -- -- 51
2020-06-15 10:00:00 17.8 13 Noroeste 21 Noroeste 0 -- -- 62
2020-06-15 09:00:00 15.3 13 Noroeste 21 Noroeste 0 -- -- 76
2020-06-15 08:00:00 13.1 13 Noroeste 23 Noroeste 0 -- -- 85
2020-06-15 07:00:00 12.5 14 Noroeste 21 Noroeste 0 -- -- 87
2020-06-15 06:00:00 13 11 Noroeste 19 Noroeste 0 -- -- 85
2020-06-15 05:00:00 13.5 13 Noroeste 22 Noroeste 0 -- -- 83
2020-06-15 04:00:00 14.2 15 Noroeste 26 Noroeste 0 -- -- 80
2020-06-15 03:00:00 14.9 16 Noroeste 27 Noroeste 0 -- -- 74
2020-06-15 02:00:00 15.9 16 Noroeste 28 Noroeste 0 -- -- 66
2020-06-15 01:00:00 17 14 Noroeste 33 Noroeste 0 -- -- 65
2020-06-15 00:00:00 18.4 17 Noroeste 32 Noroeste 0 -- -- 59
2020-06-14 23:00:00 19.9 17 Noroeste 26 Noroeste 0 -- -- 52
2020-06-14 22:00:00 22.1 15 Noroeste 28 Oeste 0 -- -- 44
2020-06-14 21:00:00 24.7 16 Noroeste 28 Noroeste 0 -- -- 38
2020-06-14 20:00:00 26.2 10 Noroeste 31 Oeste 0 -- -- 31
2020-06-14 19:00:00 26.3 13 Noroeste 27 Noroeste 0 -- -- 31
2020-06-14 18:00:00 26.1 18 Oeste 32 Noroeste 0 -- -- 32
2020-06-14 17:00:00 25.9 12 Oeste 39 Oeste 0 -- -- 34
2020-06-14 16:00:00 25 16 Noroeste 31 Oeste 0 -- -- 35
2020-06-14 15:00:00 24.7 16 Oeste 28 Noroeste 0 -- -- 37
2020-06-14 14:00:00 24.1 14 Noroeste 30 Noroeste 0 -- -- 39
2020-06-14 13:00:00 23.4 9 Noroeste 24 Noroeste 0 -- -- 41
2020-06-14 12:00:00 22.2 7 Oeste 21 Oeste 0 -- -- 47
2020-06-14 11:00:00 20.2 9 Noroeste 17 Noroeste 0 -- -- 53
2020-06-14 10:00:00 18 8 Noroeste 18 Noroeste 0 -- -- 65
2020-06-14 09:00:00 14.6 12 Noroeste 22 Noroeste 0 -- -- 82
2020-06-14 08:00:00 12.6 14 Noroeste 21 Noroeste 0 -- -- 90
2020-06-14 07:00:00 12 13 Noroeste 18 Noroeste 0 -- -- 91
2020-06-14 06:00:00 12.6 11 Noroeste 19 Noroeste 0 -- -- 88
2020-06-14 05:00:00 13.5 12 Noroeste 24 Noroeste 0 -- -- 84
2020-06-14 04:00:00 14.3 14 Noroeste 23 Noroeste 0 -- -- 79
2020-06-14 03:00:00 14.9 14 Noroeste 26 Noroeste 0 -- -- 72
2020-06-14 02:00:00 15.6 13 Noroeste 23 Noroeste 0 -- -- 65
2020-06-14 01:00:00 16.5 14 Noroeste 25 Noroeste 0 -- -- 61
2020-06-14 00:00:00 18 15 Noroeste 30 Noroeste 0 -- -- 56
2020-06-13 23:00:00 18.2 10 Oeste 16 Sudoeste 0 -- -- 65
2020-06-13 22:00:00 19.2 11 Sudoeste 26 Sudoeste 0 -- -- 59
2020-06-13 21:00:00 21.4 13 Sudoeste 29 Noroeste 0 -- -- 49
2020-06-13 20:00:00 23.3 7 Oeste 25 Sudoeste 0 -- -- 42
2020-06-13 19:00:00 23 4 Oeste 26 Oeste 0 -- -- 44
2020-06-13 18:00:00 23.9 14 Oeste 30 Oeste 0 -- -- 42
2020-06-13 17:00:00 23.2 12 Sudoeste 22 Noroeste 0 -- -- 44
2020-06-13 16:00:00 23.8 10 Sudoeste 27 Sudoeste 0 -- -- 36
2020-06-13 15:00:00 23.4 11 Oeste 26 Oeste 0 -- -- 39
2020-06-13 14:00:00 21.8 6 Oeste 18 Oeste 0 -- -- 42
2020-06-13 13:00:00 20.7 10 Oeste 21 Sudoeste 0 -- -- 47
2020-06-13 12:00:00 20 9 Oeste 17 Norte 0 -- -- 50
2020-06-13 11:00:00 18.1 10 Noroeste 18 Oeste 0 -- -- 60
2020-06-13 10:00:00 16.4 7 Norte 13 Noroeste 0 -- -- 67
2020-06-13 09:00:00 14.8 3 Norte 6 Norte 0 -- -- 81
2020-06-13 08:00:00 12.3 5 Noroeste 9 Noroeste 0 -- -- 93
2020-06-13 07:00:00 11.3 5 Noroeste 13 Noroeste 0 -- -- 94
2020-06-13 06:00:00 11.8 8 Noroeste 15 Noroeste 0 -- -- 92
2020-06-13 05:00:00 11.9 9 Noroeste 17 Noroeste 0 -- -- 90
2020-06-13 04:00:00 12.1 9 Noroeste 14 Noroeste 0 -- -- 87
2020-06-13 03:00:00 12.6 11 Noroeste 16 Noroeste 0 -- -- 83
2020-06-13 02:00:00 13.5 11 Noroeste 22 Noroeste 0 -- -- 77
2020-06-13 01:00:00 14.7 13 Noroeste 22 Noroeste 0 -- -- 70
2020-06-13 00:00:00 15.6 15 Oeste 28 Oeste 0 -- -- 67
2020-06-12 23:00:00 16.4 17 Oeste 32 Oeste 0 -- -- 63
2020-06-12 22:00:00 17.5 19 Noroeste 37 Noroeste 0 -- -- 57
2020-06-12 21:00:00 19.9 24 Noroeste 40 Noroeste 0 -- -- 49
2020-06-12 20:00:00 21.6 26 Noroeste 40 Noroeste 0 -- -- 42
2020-06-12 19:00:00 21.8 17 Noroeste 32 Noroeste 0 -- -- 44
2020-06-12 18:00:00 22.1 17 Noroeste 32 Noroeste 0 -- -- 41
2020-06-12 17:00:00 23 14 Oeste 30 Noroeste 0 -- -- 37
2020-06-12 16:00:00 21.7 12 Noroeste 35 Noroeste 0 -- -- 37
2020-06-12 15:00:00 22 13 Noroeste 30 Noroeste 0 -- -- 37
2020-06-12 14:00:00 20.1 14 Oeste 25 Noroeste 0 -- -- 43
2020-06-12 13:00:00 18.8 16 Noroeste 28 Noroeste 0 -- -- 47
2020-06-12 12:00:00 17.5 10 Oeste 26 Noroeste 0 -- -- 54
2020-06-12 11:00:00 16.7 15 Noroeste 30 Noroeste 0 -- -- 55
2020-06-12 10:00:00 15.9 15 Noroeste 24 Oeste 0 -- -- 58
2020-06-12 09:00:00 14.9 14 Noroeste 26 Noroeste 0 -- -- 73
2020-06-12 08:00:00 13.3 7 Oeste 13 Oeste 0 -- -- 81
2020-06-12 07:00:00 12.6 9 Oeste 15 Oeste 0 -- -- 80
2020-06-12 06:00:00 13.2 8 Noroeste 21 Noroeste 0 -- -- 81
2020-06-12 05:00:00 13.8 13 Noroeste 23 Noroeste 0 -- -- 85
2020-06-12 04:00:00 14.1 10 Noroeste 19 Noroeste 0 -- -- 85
2020-06-12 03:00:00 13.9 13 Oeste 24 Oeste 0 -- -- 87
2020-06-12 02:00:00 14.2 14 Oeste 39 Noroeste 0 -- -- 84
2020-06-12 01:00:00 15.4 22 Noroeste 39 Oeste 0 -- -- 79
2020-06-12 00:00:00 16.5 20 Oeste 37 Oeste 0 -- -- 73
2020-06-11 23:00:00 16.7 14 Oeste 37 Oeste 0 -- -- 83
2020-06-11 22:00:00 18.1 20 Oeste 39 Oeste 0 -- -- 76
2020-06-11 21:00:00 18.7 15 Oeste 45 Noroeste 0 -- -- 73
2020-06-11 20:00:00 20.1 23 Noroeste 42 Oeste 0 -- -- 63
2020-06-11 19:00:00 21 22 Oeste 39 Noroeste 0 -- -- 60
2020-06-11 18:00:00 21.1 27 Oeste 44 Oeste 0 -- -- 60
2020-06-11 17:00:00 21.6 21 Noroeste 39 Noroeste 0 -- -- 57
2020-06-11 16:00:00 22.1 22 Oeste 36 Noroeste 0 -- -- 54
2020-06-11 15:00:00 21.5 22 Noroeste 36 Oeste 0 -- -- 56
2020-06-11 14:00:00 22 22 Noroeste 39 Oeste 0 -- -- 52
2020-06-11 13:00:00 21.1 19 Noroeste 39 Noroeste 0 -- -- 49
2020-06-11 12:00:00 19.4 21 Noroeste 33 Noroeste 0 -- -- 52
2020-06-11 11:00:00 16.9 17 Noroeste 30 Noroeste 0 -- -- 64
2020-06-11 10:00:00 14.8 18 Noroeste 30 Noroeste 0 -- -- 77
2020-06-11 09:00:00 12.7 15 Noroeste 24 Noroeste 0 -- -- 89
2020-06-11 08:00:00 11.3 11 Noroeste 21 Noroeste 0 -- -- 94
2020-06-11 07:00:00 10.7 13 Noroeste 23 Noroeste 0 -- -- 94
2020-06-11 06:00:00 11.4 17 Noroeste 29 Noroeste 0 -- -- 90
2020-06-11 05:00:00 12.1 15 Noroeste 27 Noroeste 0 -- -- 87
2020-06-11 04:00:00 13.2 17 Noroeste 27 Noroeste 0 -- -- 81
2020-06-11 03:00:00 14.2 14 Noroeste 23 Noroeste 0 -- -- 80
2020-06-11 02:00:00 15.1 15 Noroeste 26 Oeste 0 -- -- 78
2020-06-11 01:00:00 16.4 17 Noroeste 29 Noroeste 0 -- -- 71
2020-06-11 00:00:00 17.9 15 Noroeste 25 Noroeste 0 -- -- 63
2020-06-10 23:00:00 19.3 16 Oeste 29 Oeste 0 -- -- 54
2020-06-10 22:00:00 20.9 17 Noroeste 36 Oeste 0 -- -- 50
2020-06-10 21:00:00 23.9 23 Oeste 39 Noroeste 0 -- -- 43
2020-06-10 20:00:00 25.9 19 Sudoeste 35 Sudoeste 0 -- -- 39
2020-06-10 19:00:00 27 22 Sudoeste 35 Sudoeste 0 -- -- 38
2020-06-10 18:00:00 27.5 17 Sudoeste 29 Sudoeste 0 -- -- 35
2020-06-10 17:00:00 28.5 12 Oeste 27 Noroeste 0 -- -- 30
2020-06-10 16:00:00 27.6 18 Oeste 31 Sudoeste 0 -- -- 31
2020-06-10 15:00:00 27 8 Noroeste 25 Oeste 0 -- -- 33
2020-06-10 14:00:00 26.7 9 Oeste 22 Oeste 0 -- -- 36
2020-06-10 13:00:00 24.3 10 Noroeste 21 Oeste 0 -- -- 39
2020-06-10 12:00:00 21.7 9 Noroeste 22 Noroeste 0 -- -- 44
2020-06-10 11:00:00 18.3 14 Noroeste 24 Norte 0 -- -- 60
2020-06-10 10:00:00 17.2 13 Noroeste 25 Noroeste 0 -- -- 63
2020-06-10 09:00:00 13.6 16 Noroeste 25 Noroeste 0 -- -- 76
2020-06-10 08:00:00 12.4 17 Noroeste 26 Noroeste 0 -- -- 80
2020-06-10 07:00:00 11.9 14 Noroeste 23 Noroeste 0 -- -- 80
2020-06-10 06:00:00 12.7 17 Noroeste 26 Noroeste 0 -- -- 74
2020-06-10 05:00:00 13.7 15 Noroeste 25 Noroeste 0 -- -- 70
2020-06-10 04:00:00 15 16 Noroeste 23 Noroeste 0 -- -- 66
2020-06-10 03:00:00 16.3 15 Noroeste 23 Noroeste 0 -- -- 63
2020-06-10 02:00:00 17.8 16 Noroeste 25 Noroeste 0 -- -- 58
2020-06-10 01:00:00 19.1 16 Noroeste 26 Noroeste 0 -- -- 55
2020-06-10 00:00:00 20.3 14 Noroeste 22 Noroeste 0 -- -- 51
2020-06-09 23:00:00 21.1 10 Sudoeste 27 Sudoeste 0 -- -- 42
2020-06-09 22:00:00 22.1 18 Sudoeste 32 Sudoeste 0 -- -- 36
2020-06-09 21:00:00 23.9 21 Sudoeste 37 Sudoeste 0 -- -- 32
2020-06-09 20:00:00 24.7 28 Sudoeste 44 Sur 0 -- -- 32
2020-06-09 19:00:00 25.8 33 Sur 52 Sur 0 -- -- 32
2020-06-09 18:00:00 27.2 21 Sudoeste 35 Sur 0 -- -- 33
2020-06-09 17:00:00 27.9 10 Noroeste 27 Noroeste 0 -- -- 23
2020-06-09 16:00:00 27.5 6 Norte 23 Sudoeste 0 -- -- 24
2020-06-09 15:00:00 27.5 12 Oeste 28 Noroeste 0 -- -- 26
2020-06-09 14:00:00 26.1 9 Noroeste 25 Noroeste 0 -- -- 28
2020-06-09 13:00:00 25.4 10 Oeste 20 Noroeste 0 -- -- 31
2020-06-09 12:00:00 23 8 Noroeste 16 Noroeste 0 -- -- 46
2020-06-09 11:00:00 20.2 10 Noroeste 20 Noroeste 0 -- -- 56
2020-06-09 10:00:00 16.5 15 Noroeste 26 Noroeste 0 -- -- 69
2020-06-09 09:00:00 14 18 Noroeste 30 Noroeste 0 -- -- 78
2020-06-09 08:00:00 12.4 16 Noroeste 26 Noroeste 0 -- -- 85
2020-06-09 07:00:00 12.1 17 Noroeste 26 Noroeste 0 -- -- 85
2020-06-09 06:00:00 12.8 14 Noroeste 29 Noroeste 0 -- -- 81
2020-06-09 05:00:00 13.7 19 Noroeste 30 Oeste 0 -- -- 77
2020-06-09 04:00:00 14.4 16 Noroeste 28 Noroeste 0 -- -- 74
2020-06-09 03:00:00 15 18 Noroeste 27 Noroeste 0 -- -- 73
2020-06-09 02:00:00 15.8 17 Noroeste 26 Noroeste 0 -- -- 70
2020-06-09 01:00:00 16.5 16 Noroeste 27 Oeste 0 -- -- 69
2020-06-09 00:00:00 17.7 17 Noroeste 27 Oeste 0 -- -- 62
2020-06-08 23:00:00 19.3 16 Noroeste 33 Oeste 0 -- -- 55
2020-06-08 22:00:00 21.3 9 Noroeste 24 Noroeste 0 -- -- 37
2020-06-08 21:00:00 23.8 14 Noroeste 30 Noroeste 0 -- -- 30
2020-06-08 20:00:00 24.7 15 Noroeste 29 Norte 0 -- -- 29
2020-06-08 19:00:00 25 14 Noroeste 32 Noroeste 0 -- -- 29
2020-06-08 18:00:00 24.7 15 Norte 31 Noroeste 0 -- -- 29
2020-06-08 17:00:00 24.4 14 Noroeste 31 Noroeste 0 -- -- 32
2020-06-08 16:00:00 23.7 19 Noroeste 37 Oeste 0 -- -- 34
2020-06-08 15:00:00 23.1 14 Noroeste 33 Noroeste 0 -- -- 38
2020-06-08 14:00:00 22.1 18 Noroeste 34 Noroeste 0 -- -- 41
2020-06-08 13:00:00 20.4 16 Noroeste 31 Oeste 0 -- -- 48
2020-06-08 12:00:00 18.4 18 Noroeste 33 Noroeste 0 -- -- 56
2020-06-08 11:00:00 16.6 20 Noroeste 39 Noroeste 0 -- -- 64
2020-06-08 10:00:00 14.7 21 Noroeste 39 Noroeste 0 -- -- 71
2020-06-08 09:00:00 12.4 17 Noroeste 28 Noroeste 0 -- -- 80
2020-06-08 08:00:00 9.9 8 Noroeste 17 Noroeste 0 -- -- 87
2020-06-08 07:00:00 9.9 8 Noroeste 17 Noroeste 0 -- -- 85
2020-06-08 06:00:00 10.4 15 Noroeste 23 Noroeste 0 -- -- 81
2020-06-08 05:00:00 11.3 16 Noroeste 30 Noroeste 0 -- -- 77
2020-06-08 04:00:00 12.1 18 Noroeste 28 Noroeste 0 -- -- 72
2020-06-08 03:00:00 13 16 Noroeste 32 Noroeste 0 -- -- 69
2020-06-08 02:00:00 14.5 19 Noroeste 33 Noroeste 0 -- -- 64
2020-06-08 01:00:00 16.2 14 Noroeste 29 Noroeste 0 -- -- 64
2020-06-08 00:00:00 17.8 20 Noroeste 30 Noroeste 0 -- -- 60
2020-06-07 23:00:00 18.7 12 Noroeste 33 Noroeste 0 -- -- 68
2020-06-07 22:00:00 20.2 18 Noroeste 30 Noroeste 0 -- -- 65
2020-06-07 21:00:00 21.5 18 Noroeste 31 Oeste 0 -- -- 56
2020-06-07 20:00:00 22.5 17 Noroeste 31 Noroeste 0 -- -- 52
2020-06-07 19:00:00 23 16 Noroeste 32 Noroeste 0 -- -- 52
2020-06-07 18:00:00 23.4 18 Oeste 36 Noroeste 0 -- -- 51
2020-06-07 17:00:00 23.2 15 Noroeste 35 Noroeste 0 -- -- 51
2020-06-07 16:00:00 22.4 16 Oeste 34 Noroeste 0 -- -- 53
2020-06-07 15:00:00 21.2 19 Noroeste 31 Noroeste 0 -- -- 58
2020-06-07 14:00:00 20 14 Oeste 29 Noroeste 0 -- -- 62
2020-06-07 13:00:00 18.3 14 Noroeste 26 Noroeste 0 -- -- 70
2020-06-07 12:00:00 17.5 15 Noroeste 29 Noroeste 0 -- -- 73
2020-06-07 11:00:00 17.2 19 Noroeste 30 Noroeste 0 -- -- 73
2020-06-07 10:00:00 16.5 19 Noroeste 29 Noroeste 0 -- -- 79
2020-06-07 09:00:00 15 18 Noroeste 26 Noroeste 0 -- -- 89
2020-06-07 08:00:00 13.2 13 Noroeste 21 Noroeste 0 -- -- 94
2020-06-07 07:00:00 12.8 12 Noroeste 22 Noroeste 0 -- -- 94
2020-06-07 06:00:00 13.2 12 Noroeste 22 Noroeste 0 -- -- 92
2020-06-07 05:00:00 13.8 13 Noroeste 25 Noroeste 0 -- -- 88
2020-06-07 04:00:00 14.3 10 Noroeste 21 Noroeste 0 -- -- 84
2020-06-07 03:00:00 14.8 13 Noroeste 21 Oeste 0 -- -- 81
2020-06-07 02:00:00 15.6 10 Noroeste 22 Noroeste 0 -- -- 77
2020-06-07 01:00:00 16.8 13 Noroeste 23 Noroeste 0 -- -- 72
2020-06-07 00:00:00 18.4 17 Noroeste 30 Oeste 0 -- -- 65
2020-06-06 23:00:00 19.7 15 Noroeste 24 Noroeste 0 -- -- 59
2020-06-06 22:00:00 20.9 14 Noroeste 29 Oeste 0 -- -- 61
2020-06-06 21:00:00 20.6 13 Sudoeste 30 Sudoeste 0 -- -- 75
2020-06-06 20:00:00 21.4 22 Sudoeste 41 Sur 0 -- -- 65
2020-06-06 19:00:00 25.9 21 Sur 33 Sudoeste 0 -- -- 50
2020-06-06 18:00:00 27.1 9 Oeste 24 Sudoeste 0 -- -- 43
2020-06-06 17:00:00 27.2 13 Sudoeste 30 Oeste 0 -- -- 39
2020-06-06 16:00:00 27 11 Oeste 28 Sudoeste 0 -- -- 40
2020-06-06 15:00:00 26.3 13 Sudoeste 26 Sur 0 -- -- 42
2020-06-06 14:00:00 25.1 10 Oeste 22 Sur 0 -- -- 45
2020-06-06 13:00:00 23.7 10 Sudoeste 21 Oeste 0 -- -- 49
2020-06-06 12:00:00 21.7 6 Oeste 14 Noroeste 0 -- -- 54
2020-06-06 11:00:00 19.4 8 Noroeste 21 Noroeste 0 -- -- 64
2020-06-06 10:00:00 17 14 Noroeste 22 Noroeste 0 -- -- 77
2020-06-06 09:00:00 14.6 13 Noroeste 19 Noroeste 0 -- -- 91
2020-06-06 08:00:00 12.9 12 Noroeste 19 Noroeste 0 -- -- 97
2020-06-06 07:00:00 12.7 12 Noroeste 16 Noroeste 0 -- -- 97
2020-06-06 06:00:00 12.9 9 Noroeste 19 Oeste 0 -- -- 96
2020-06-06 05:00:00 13.5 9 Noroeste 19 Noroeste 0 -- -- 93
2020-06-06 04:00:00 14 13 Noroeste 22 Noroeste 0 -- -- 90
2020-06-06 03:00:00 14.5 15 Noroeste 24 Oeste 0 -- -- 88
2020-06-06 02:00:00 15.1 18 Noroeste 29 Noroeste 0 -- -- 84
2020-06-06 01:00:00 16.3 17 Noroeste 28 Noroeste 0 -- -- 77
2020-06-06 00:00:00 17.9 15 Noroeste 24 Oeste 0 -- -- 70
2020-06-05 23:00:00 19.7 7 Oeste 16 Oeste 0 -- -- 58
2020-06-05 22:00:00 20.6 12 Sur 24 Sur 0 -- -- 65
2020-06-05 21:00:00 22.9 17 Sur 33 Sudoeste 0 -- -- 56
2020-06-05 20:00:00 24.1 23 Sur 33 Sur 0 -- -- 51
2020-06-05 19:00:00 24.9 24 Sudoeste 38 Sur 0 -- -- 46
2020-06-05 18:00:00 26.6 18 Sudoeste 32 Sur 0 -- -- 47
2020-06-05 17:00:00 27.5 13 Oeste 32 Noroeste 0 -- -- 40
2020-06-05 16:00:00 26.1 8 Oeste 26 Oeste 0 -- -- 42
2020-06-05 15:00:00 24.8 12 Oeste 27 Noroeste 0 -- -- 46
2020-06-05 14:00:00 23.2 13 Oeste 24 Noroeste 0 -- -- 50
2020-06-05 13:00:00 21.9 12 Noroeste 23 Noroeste 0 -- -- 50
2020-06-05 12:00:00 20.2 10 Noroeste 21 Oeste 0 -- -- 60
2020-06-05 11:00:00 18.2 11 Noroeste 20 Noroeste 0 -- -- 66
2020-06-05 10:00:00 16.1 14 Noroeste 24 Noroeste 0 -- -- 76
2020-06-05 09:00:00 14.1 13 Noroeste 21 Noroeste 0 -- -- 85
2020-06-05 08:00:00 12.9 11 Noroeste 17 Noroeste 0 -- -- 91
2020-06-05 07:00:00 12.4 12 Noroeste 17 Noroeste 0 -- -- 91
2020-06-05 06:00:00 13.3 10 Noroeste 17 Noroeste 0 -- -- 88
2020-06-05 05:00:00 14 9 Noroeste 18 Noroeste 0 -- -- 86
2020-06-05 04:00:00 14.9 12 Noroeste 16 Noroeste 0 -- -- 84
2020-06-05 03:00:00 16.3 11 Noroeste 21 Noroeste 0 -- -- 85
2020-06-05 02:00:00 17.1 10 Noroeste 23 Noroeste 0 -- -- 87
2020-06-05 01:00:00 18 14 Noroeste 23 Noroeste 0 -- -- 85
2020-06-05 00:00:00 19.2 14 Noroeste 24 Oeste 0 -- -- 83
2020-06-04 23:00:00 19.7 10 Oeste 26 Sur 0 -- -- 85
2020-06-04 22:00:00 19.4 23 Sur 31 Sur 0 -- -- 86
2020-06-04 21:00:00 20 22 Sur 30 Sur 0 -- -- 86
2020-06-04 20:00:00 20 18 Sur 25 Sur 4 -- -- 86
2020-06-04 19:00:00 20.8 12 Sur 20 Sur 8.6 -- -- 87
2020-06-04 18:00:00 22.6 8 Noroeste 32 Sur 0 -- -- 74
2020-06-04 17:00:00 23.2 17 Sudoeste 30 Sudoeste 1.4 -- -- 76
2020-06-04 16:00:00 21.2 21 Sudoeste 34 Sudoeste 0.2 -- -- 79
2020-06-04 15:00:00 23 18 Sudoeste 30 Sudoeste 0 -- -- 69
2020-06-04 14:00:00 21.9 15 Oeste 27 Oeste 0.4 -- -- 75
2020-06-04 13:00:00 23.1 14 Noroeste 27 Noroeste 0 -- -- 64
2020-06-04 12:00:00 21.4 13 Noroeste 24 Oeste 0 -- -- 71
2020-06-04 11:00:00 19.7 11 Oeste 20 Oeste 0 -- -- 78
2020-06-04 10:00:00 17.5 6 Oeste 15 Oeste 0 -- -- 91
2020-06-04 09:00:00 17 7 Oeste 15 Oeste 0 -- -- 94
2020-06-04 08:00:00 16.5 6 Oeste 12 Oeste 0 -- -- 95
2020-06-04 07:00:00 16.1 6 Noroeste 14 Noroeste 0 -- -- 96
2020-06-04 06:00:00 16.3 10 Noroeste 19 Oeste 0 -- -- 94
2020-06-04 05:00:00 16.5 9 Noroeste 20 Noroeste 0 -- -- 93
2020-06-04 04:00:00 16.9 12 Noroeste 22 Noroeste 0 -- -- 91
2020-06-04 03:00:00 16.8 13 Noroeste 27 Noroeste 0 -- -- 90
2020-06-04 02:00:00 17.4 18 Noroeste 28 Noroeste 0 -- -- 86
2020-06-04 01:00:00 18.2 17 Noroeste 33 Noroeste 0 -- -- 79
2020-06-04 00:00:00 19.4 21 Noroeste 36 Noroeste 0 -- -- 72
2020-06-03 23:00:00 20.9 20 Noroeste 32 Oeste 0 -- -- 60
2020-06-03 22:00:00 23 18 Noroeste 31 Noroeste 0 -- -- 53
2020-06-03 21:00:00 24.2 14 Sur 31 Sudoeste 0 -- -- 63
2020-06-03 20:00:00 24.6 20 Sur 34 Sur 0 -- -- 61
2020-06-03 19:00:00 26.3 22 Sur 37 Sur 0 -- -- 54
2020-06-03 18:00:00 27.1 24 Sudoeste 36 Sur 0 -- -- 48
2020-06-03 17:00:00 27.6 17 Sur 31 Sudoeste 0 -- -- 44
2020-06-03 16:00:00 27.4 17 Sudoeste 31 Sudeste 0 -- -- 46
2020-06-03 15:00:00 27.6 13 Sudoeste 29 Oeste 0 -- -- 42
2020-06-03 14:00:00 26.1 8 Noroeste 27 Oeste 0 -- -- 43
2020-06-03 13:00:00 25 12 Oeste 27 Sudoeste 0 -- -- 50
2020-06-03 12:00:00 23.7 11 Oeste 20 Oeste 0 -- -- 55
2020-06-03 11:00:00 23.2 6 Sudoeste 13 Oeste 0 -- -- 56
2020-06-03 10:00:00 19.9 4 Noroeste 10 Noroeste 0 -- -- 76
2020-06-03 09:00:00 17.3 6 Noroeste 14 Noroeste 0 -- -- 89
2020-06-03 08:00:00 15.1 11 Noroeste 18 Noroeste 0 -- -- 96
2020-06-03 07:00:00 14.6 10 Noroeste 17 Noroeste 0 -- -- 95
2020-06-03 06:00:00 15 12 Noroeste 20 Noroeste 0 -- -- 91
2020-06-03 05:00:00 15.6 12 Noroeste 21 Noroeste 0 -- -- 86
2020-06-03 04:00:00 16.2 13 Noroeste 22 Noroeste 0 -- -- 81
2020-06-03 03:00:00 16.9 13 Noroeste 20 Noroeste 0 -- -- 79
2020-06-03 02:00:00 17.5 12 Noroeste 19 Noroeste 0 -- -- 76
2020-06-03 01:00:00 18.7 10 Noroeste 20 Noroeste 0 -- -- 72
2020-06-03 00:00:00 19.5 11 Noroeste 17 Oeste 0 -- -- 70